Cordova, Alaska
Current Conditions -  °F | °C
As of 10:53 PM on Tuesday 25 Nov 2014 (Local Time) from PACV Reporting Station
Broken Clouds Broken Clouds  
Wind Chill: 30°   Ceiling: 5000
Heat Index: 30°   Visibility: 10mi
Dew Point: 28°   Wind: 0mph
Humidity: 92%   Direction: NA
Pressure: 30.27"   Gusts: NA
Location:  60.54°N, 145.76°W
Report Text: PACV 260753Z 00000KT 10SM SCT021 BKN050 BKN070 M01/M02 A3027 RMK AO2 SLP249 T10111022
Loading
Personal Weather Stations






























Interactive Weather Map New forecast layout! Learn more

10-Day Weather Forecast

Advertisements
Track Severe Weather on mobile